createdAt,value
2022-09-14T00:01:48.195Z,99310.00
2022-09-14T00:04:21.117Z,99316.09
2022-09-14T00:06:50.962Z,99317.84
2022-09-14T00:09:25.755Z,99323.19
2022-09-14T00:11:54.833Z,99316.53
2022-09-14T00:14:23.368Z,99319.03
2022-09-14T00:16:53.102Z,99316.94
2022-09-14T00:19:27.846Z,99322.25
2022-09-14T00:21:59.253Z,99322.00
2022-09-14T00:24:31.791Z,99321.69
2022-09-14T00:27:00.331Z,99322.16
2022-09-14T00:29:28.854Z,99331.09
2022-09-14T00:31:58.364Z,99335.88
2022-09-14T00:34:27.027Z,99328.69
2022-09-14T00:36:55.634Z,99326.31
2022-09-14T00:39:25.850Z,99330.34
2022-09-14T00:41:55.454Z,99334.94
2022-09-14T00:44:26.920Z,99335.38
2022-09-14T00:46:58.514Z,99341.50
2022-09-14T00:49:36.175Z,99337.84
2022-09-14T00:52:16.548Z,99338.31
2022-09-14T00:54:58.706Z,99345.16
2022-09-14T00:57:31.719Z,99346.38
2022-09-14T01:00:00.893Z,99346.09
2022-09-14T01:02:30.365Z,99357.84
2022-09-14T01:04:59.234Z,99359.06
2022-09-14T01:07:33.278Z,99365.16
2022-09-14T01:10:29.050Z,99364.84
2022-09-14T01:13:15.667Z,99368.88
2022-09-14T01:15:56.038Z,99372.16
2022-09-14T01:18:41.676Z,99373.38
2022-09-14T01:21:14.668Z,99368.22
2022-09-14T01:23:48.807Z,99371.25
2022-09-14T01:26:35.629Z,99377.56
2022-09-14T01:29:24.472Z,99374.97
2022-09-14T01:31:59.295Z,99378.00
2022-09-14T01:34:54.641Z,99381.81
2022-09-14T01:37:43.357Z,99369.78
2022-09-14T01:40:43.771Z,99376.63
2022-09-14T01:43:16.563Z,99380.75
2022-09-14T01:46:21.509Z,99379.69
2022-09-14T01:49:08.914Z,99378.16
2022-09-14T01:51:49.347Z,99385.03
2022-09-14T01:54:36.342Z,99385.28
2022-09-14T01:57:17.758Z,99385.97
2022-09-14T01:59:48.679Z,99388.47
2022-09-14T02:02:19.943Z,99388.16
2022-09-14T02:04:54.352Z,99401.38
2022-09-14T02:07:22.990Z,99407.47
2022-09-14T02:09:52.906Z,99401.56
2022-09-14T02:12:21.652Z,99404.81
2022-09-14T02:14:53.723Z,99402.44
2022-09-14T02:17:23.345Z,99402.88
2022-09-14T02:19:57.384Z,99404.84
2022-09-14T02:22:28.739Z,99406.06
2022-09-14T02:24:57.425Z,99409.84
2022-09-14T02:27:26.711Z,99416.19
2022-09-14T02:29:55.566Z,99410.47
2022-09-14T02:33:01.514Z,99412.88
2022-09-14T02:35:35.930Z,99417.88
2022-09-14T02:38:30.865Z,99409.88
2022-09-14T02:41:13.279Z,99415.75
2022-09-14T02:44:11.092Z,99412.59
2022-09-14T02:46:47.966Z,99416.41
2022-09-14T02:49:47.042Z,99419.22
2022-09-14T02:52:31.851Z,99406.09
2022-09-14T02:55:08.923Z,99406.53
2022-09-14T02:58:07.875Z,99404.91
2022-09-14T03:00:49.751Z,99409.91
2022-09-14T03:03:21.858Z,99405.56
2022-09-14T03:05:50.373Z,99402.00
2022-09-14T03:08:18.822Z,99409.72
2022-09-14T03:10:47.657Z,99401.00
2022-09-14T03:13:16.086Z,99401.00
2022-09-14T03:15:44.691Z,99393.28
2022-09-14T03:18:14.664Z,99394.81
2022-09-14T03:20:43.669Z,99395.59
2022-09-14T03:23:13.202Z,99395.06
2022-09-14T03:25:44.427Z,99397.00
2022-09-14T03:28:14.434Z,99401.47
2022-09-14T03:30:43.121Z,99405.59
2022-09-14T03:33:11.667Z,99399.28
2022-09-14T03:35:40.132Z,99392.34
2022-09-14T03:38:09.588Z,99396.69
2022-09-14T03:40:38.314Z,99386.38
2022-09-14T03:43:06.869Z,99393.09
2022-09-14T03:45:35.306Z,99393.88
2022-09-14T03:48:04.056Z,99388.44
2022-09-14T03:50:33.179Z,99382.78
2022-09-14T03:53:01.703Z,99381.38
2022-09-14T03:55:30.240Z,99382.03
2022-09-14T03:57:58.776Z,99379.84
2022-09-14T04:00:27.247Z,99370.16
2022-09-14T04:02:55.773Z,99367.78
2022-09-14T04:05:24.274Z,99365.72
2022-09-14T04:07:52.750Z,99355.16
2022-09-14T04:10:21.286Z,99352.34
2022-09-14T04:12:49.712Z,99359.19
2022-09-14T04:15:18.478Z,99353.31
2022-09-14T04:17:47.246Z,99350.50
2022-09-14T04:20:15.784Z,99349.53
2022-09-14T04:22:44.197Z,99338.97
2022-09-14T04:25:13.103Z,99343.13
2022-09-14T04:27:41.600Z,99338.53
2022-09-14T04:30:10.408Z,99327.03
2022-09-14T04:32:38.862Z,99331.69
2022-09-14T04:35:07.597Z,99322.81
2022-09-14T04:37:36.052Z,99312.06
2022-09-14T04:40:04.780Z,99318.88
2022-09-14T04:42:33.284Z,99318.88
2022-09-14T04:45:01.959Z,99314.00
2022-09-14T04:47:31.017Z,99305.53
2022-09-14T04:49:59.513Z,99297.59
2022-09-14T04:52:27.939Z,99288.91
2022-09-14T04:54:56.544Z,99288.16
2022-09-14T04:57:25.042Z,99292.84
2022-09-14T04:59:53.476Z,99287.75
2022-09-14T05:02:22.195Z,99285.03
2022-09-14T05:04:50.741Z,99279.84
2022-09-14T05:07:19.254Z,99278.31
2022-09-14T05:09:47.671Z,99264.13
2022-09-14T05:12:16.207Z,99259.88
2022-09-14T05:14:44.712Z,99254.03
2022-09-14T05:17:13.179Z,99257.41
2022-09-14T05:19:41.676Z,99256.22
2022-09-14T05:22:10.111Z,99266.09
2022-09-14T05:24:38.597Z,99262.22
2022-09-14T05:27:07.113Z,99251.66
2022-09-14T05:29:35.718Z,99237.56
2022-09-14T05:32:04.588Z,99232.97
2022-09-14T05:34:33.212Z,99215.81
2022-09-14T05:37:01.690Z,99204.09
2022-09-14T05:39:30.345Z,99194.06
2022-09-14T05:41:58.876Z,99189.06
2022-09-14T05:44:27.524Z,99188.72
2022-09-14T05:46:56.012Z,99186.50
2022-09-14T05:49:26.296Z,99196.13
2022-09-14T05:51:54.801Z,99198.38
2022-09-14T05:54:23.202Z,99191.34
2022-09-14T05:56:51.706Z,99195.84
2022-09-14T05:59:20.210Z,99185.97
2022-09-14T06:01:49.070Z,99187.56
2022-09-14T06:04:17.555Z,99175.09
2022-09-14T06:06:56.085Z,99159.50
2022-09-14T06:09:34.625Z,99160.25
2022-09-14T06:12:03.347Z,99155.38
2022-09-14T06:14:35.255Z,99151.50
2022-09-14T06:17:04.133Z,99154.53
2022-09-14T06:19:32.566Z,99145.06
2022-09-14T06:22:02.222Z,99137.06
2022-09-14T06:24:30.746Z,99119.34
2022-09-14T06:26:59.165Z,99113.59
2022-09-14T06:29:38.232Z,99113.00
2022-09-14T06:32:07.084Z,99112.94
2022-09-14T06:34:35.518Z,99116.94
2022-09-14T06:37:04.052Z,99116.31
2022-09-14T06:39:32.749Z,99100.63
2022-09-14T06:42:01.275Z,99095.09
2022-09-14T06:44:29.723Z,99086.56
2022-09-14T06:46:58.437Z,99077.47
2022-09-14T06:49:26.913Z,99070.97
2022-09-14T06:51:57.698Z,99068.03
2022-09-14T06:54:26.553Z,99072.28
2022-09-14T06:56:55.080Z,99068.09
2022-09-14T06:59:23.627Z,99065.91
2022-09-14T07:01:52.194Z,99072.19
2022-09-14T07:04:20.789Z,99080.53
2022-09-14T07:06:51.223Z,99079.47
2022-09-14T07:09:20.809Z,99091.91
2022-09-14T07:11:50.194Z,99076.75
2022-09-14T07:14:18.773Z,99063.63
2022-09-14T07:16:47.317Z,99053.84
2022-09-14T07:19:16.916Z,99043.53
2022-09-14T07:21:45.428Z,99041.47
2022-09-14T07:24:16.013Z,99030.22
2022-09-14T07:26:44.719Z,99041.81
2022-09-14T07:29:18.781Z,99046.50
2022-09-14T07:31:55.115Z,99040.97
2022-09-14T07:34:24.949Z,99024.91
2022-09-14T07:36:53.526Z,99018.66
2022-09-14T07:39:22.069Z,99017.78
2022-09-14T07:41:50.539Z,99035.03
2022-09-14T07:44:19.423Z,99030.03
2022-09-14T07:46:48.641Z,99020.38
2022-09-14T07:49:18.456Z,99007.91
2022-09-14T07:51:47.060Z,98998.28
2022-09-14T07:54:17.656Z,98989.41
2022-09-14T07:56:46.831Z,99006.84
2022-09-14T07:59:35.938Z,99025.03
2022-09-14T08:02:08.684Z,99028.41
2022-09-14T08:04:37.537Z,99007.94
2022-09-14T08:07:06.764Z,99003.81
2022-09-14T08:09:35.524Z,98986.91
2022-09-14T08:12:05.464Z,98985.63
2022-09-14T08:14:34.176Z,98965.16
2022-09-14T08:17:02.838Z,98967.41
2022-09-14T08:19:31.385Z,98962.53
2022-09-14T08:21:59.858Z,98972.50
2022-09-14T08:24:28.566Z,98969.69
2022-09-14T08:26:57.034Z,98978.13
2022-09-14T08:29:25.517Z,98979.66
2022-09-14T08:31:54.390Z,98976.09
2022-09-14T08:34:23.076Z,98973.25
2022-09-14T08:36:52.054Z,98968.38
2022-09-14T08:39:20.751Z,98978.34
2022-09-14T08:41:49.365Z,98973.25
2022-09-14T08:44:32.295Z,98971.75
2022-09-14T08:47:14.107Z,98964.59
2022-09-14T08:49:56.087Z,98961.56
2022-09-14T08:52:48.167Z,98965.69
2022-09-14T08:55:19.384Z,98957.03
2022-09-14T08:58:06.142Z,98947.06
2022-09-14T09:00:49.628Z,98955.31
2022-09-14T09:03:41.215Z,98949.44
2022-09-14T09:06:16.984Z,98947.38
2022-09-14T09:08:45.398Z,98953.53
2022-09-14T09:11:21.017Z,98943.03
2022-09-14T09:13:53.149Z,98943.78
2022-09-14T09:16:25.572Z,98950.19
2022-09-14T09:19:08.643Z,98961.69
2022-09-14T09:21:43.393Z,98956.06
2022-09-14T09:24:27.442Z,98947.06
2022-09-14T09:26:55.889Z,98944.25
2022-09-14T09:29:24.654Z,98942.19
2022-09-14T09:32:00.046Z,98938.06
2022-09-14T09:34:31.288Z,98944.47
2022-09-14T09:37:01.930Z,98946.53
2022-09-14T09:39:34.830Z,98950.84
2022-09-14T09:42:14.194Z,98961.56
2022-09-14T09:44:59.315Z,98958.75
2022-09-14T09:47:43.127Z,98969.25
2022-09-14T09:50:26.176Z,98964.38
2022-09-14T09:53:06.020Z,98959.50
2022-09-14T09:55:40.972Z,98962.31
2022-09-14T09:58:24.644Z,98975.66
2022-09-14T10:01:20.465Z,98976.41
2022-09-14T10:04:06.787Z,98973.59
2022-09-14T10:06:47.668Z,98971.53
2022-09-14T10:09:22.611Z,98969.47
2022-09-14T10:12:05.499Z,98977.16
2022-09-14T10:14:37.060Z,98980.75
2022-09-14T10:17:25.140Z,98983.00
2022-09-14T10:19:55.876Z,98980.75
2022-09-14T10:22:39.244Z,98977.38
2022-09-14T10:25:16.974Z,98984.31
2022-09-14T10:28:01.179Z,98989.19
2022-09-14T10:30:50.294Z,98992.75
2022-09-14T10:33:19.590Z,98993.31
2022-09-14T10:35:51.058Z,98998.19
2022-09-14T10:38:35.493Z,99000.78
2022-09-14T10:41:16.877Z,98997.75
2022-09-14T10:44:20.415Z,98989.84
2022-09-14T10:47:02.589Z,98992.41
2022-09-14T10:49:34.629Z,98981.69
2022-09-14T10:52:25.426Z,98985.06
2022-09-14T10:55:00.077Z,98983.53
2022-09-14T10:57:40.797Z,98978.66
2022-09-14T11:00:21.684Z,98969.47
2022-09-14T11:03:28.794Z,98955.94
2022-09-14T11:05:57.186Z,98960.03
2022-09-14T11:08:30.932Z,98957.78
2022-09-14T11:11:11.670Z,98969.03
2022-09-14T11:13:47.127Z,98972.94
2022-09-14T11:16:33.484Z,98990.38
2022-09-14T11:19:22.523Z,98998.59
2022-09-14T11:22:28.049Z,99005.31
2022-09-14T11:25:13.620Z,99007.91
2022-09-14T11:27:58.701Z,99026.88
2022-09-14T11:30:40.546Z,99034.56
2022-09-14T11:33:19.092Z,99038.66
2022-09-14T11:35:53.286Z,99033.56
2022-09-14T11:38:27.468Z,99027.19
2022-09-14T11:41:20.842Z,99034.88
2022-09-14T11:43:59.332Z,99047.44
2022-09-14T11:46:41.345Z,99062.28
2022-09-14T11:49:28.018Z,99062.81
2022-09-14T11:52:30.090Z,99064.84
2022-09-14T11:55:00.576Z,99060.50
2022-09-14T11:57:32.029Z,99062.56
2022-09-14T12:00:03.840Z,99060.50
2022-09-14T12:02:37.518Z,99064.06
2022-09-14T12:05:09.282Z,99071.00
2022-09-14T12:07:43.858Z,99077.94
2022-09-14T12:10:21.626Z,99079.44
2022-09-14T12:13:00.666Z,99084.31
2022-09-14T12:15:29.194Z,99101.97
2022-09-14T12:18:10.294Z,99100.44
2022-09-14T12:21:00.793Z,99106.63
2022-09-14T12:23:41.101Z,99130.41
2022-09-14T12:26:12.222Z,99145.25
2022-09-14T12:28:49.139Z,99157.78
2022-09-14T12:31:45.379Z,99159.09
2022-09-14T12:34:32.853Z,99167.53
2022-09-14T12:37:33.343Z,99183.13
2022-09-14T12:40:33.138Z,99188.75
2022-09-14T12:43:36.895Z,99200.00
2022-09-14T12:46:09.225Z,99200.00
2022-09-14T12:48:50.009Z,99210.00
2022-09-14T12:51:32.264Z,99221.25
2022-09-14T12:54:04.112Z,99217.66
2022-09-14T12:56:41.881Z,99221.25
2022-09-14T12:59:13.036Z,99230.47
2022-09-14T13:02:11.083Z,99246.06
2022-09-14T13:04:43.072Z,99243.00
2022-09-14T13:07:20.912Z,99238.66
2022-09-14T13:09:55.510Z,99242.22
2022-09-14T13:12:47.858Z,99257.59
2022-09-14T13:15:28.614Z,99258.91
2022-09-14T13:18:02.540Z,99261.47
2022-09-14T13:20:33.407Z,99268.41
2022-09-14T13:23:02.479Z,99266.66
2022-09-14T13:25:39.736Z,99270.75
2022-09-14T13:28:16.737Z,99275.41
2022-09-14T13:30:54.384Z,99277.47
2022-09-14T13:33:23.394Z,99284.38
2022-09-14T13:36:11.911Z,99286.97
2022-09-14T13:38:40.557Z,99301.56
2022-09-14T13:41:20.481Z,99286.75
2022-09-14T13:43:49.321Z,99298.53
2022-09-14T13:46:20.388Z,99303.94
2022-09-14T13:48:49.806Z,99299.56
2022-09-14T13:51:26.150Z,99307.25
2022-09-14T13:53:59.963Z,99305.72
2022-09-14T13:56:34.713Z,99309.84
2022-09-14T13:59:12.473Z,99309.59
2022-09-14T14:02:01.975Z,99306.03
2022-09-14T14:04:34.644Z,99312.72
2022-09-14T14:07:14.391Z,99301.22
2022-09-14T14:09:47.809Z,99307.41
2022-09-14T14:12:28.476Z,99310.72
2022-09-14T14:15:00.911Z,99318.41
2022-09-14T14:17:37.772Z,99321.22
2022-09-14T14:20:41.651Z,99324.56
2022-09-14T14:23:10.068Z,99324.34
2022-09-14T14:25:56.535Z,99326.91
2022-09-14T14:28:29.409Z,99319.78
2022-09-14T14:31:03.036Z,99322.34
2022-09-14T14:33:33.869Z,99320.59
2022-09-14T14:36:09.327Z,99323.94
2022-09-14T14:38:38.865Z,99318.59
2022-09-14T14:41:07.710Z,99321.16
2022-09-14T14:43:36.341Z,99325.81
2022-09-14T14:46:07.259Z,99313.56
2022-09-14T14:48:35.917Z,99324.56
2022-09-14T14:51:04.614Z,99325.06
2022-09-14T14:53:33.210Z,99329.19
2022-09-14T14:56:01.755Z,99330.22
2022-09-14T14:58:35.368Z,99331.28
2022-09-14T15:01:05.206Z,99330.28
2022-09-14T15:03:33.725Z,99321.63
2022-09-14T15:06:11.943Z,99324.97
2022-09-14T15:08:40.407Z,99321.88
2022-09-14T15:11:21.609Z,99319.59
2022-09-14T15:13:50.914Z,99316.03
2022-09-14T15:16:19.731Z,99319.59
2022-09-14T15:18:48.295Z,99323.69
2022-09-14T15:21:16.931Z,99322.94
2022-09-14T15:23:45.413Z,99333.44
2022-09-14T15:26:13.973Z,99332.66
2022-09-14T15:28:42.409Z,99337.53
2022-09-14T15:31:10.874Z,99330.38
2022-09-14T15:33:39.662Z,99331.91
2022-09-14T15:36:08.257Z,99336.75
2022-09-14T15:38:36.763Z,99331.16
2022-09-14T15:41:05.890Z,99333.19
2022-09-14T15:43:34.933Z,99322.72
2022-09-14T15:46:04.595Z,99334.72
2022-09-14T15:48:33.196Z,99319.91
2022-09-14T15:51:10.727Z,99317.84
2022-09-14T15:53:40.161Z,99313.00
2022-09-14T15:56:16.257Z,99304.03
2022-09-14T15:58:48.023Z,99304.03
2022-09-14T16:01:18.542Z,99297.13
2022-09-14T16:03:47.462Z,99291.50
2022-09-14T16:06:16.397Z,99281.00
2022-09-14T16:08:45.020Z,99272.56
2022-09-14T16:11:13.498Z,99268.25
2022-09-14T16:13:41.945Z,99279.50
2022-09-14T16:16:14.051Z,99267.47
2022-09-14T16:18:43.448Z,99280.25
2022-09-14T16:21:23.655Z,99288.69
2022-09-14T16:24:03.546Z,99292.78
2022-09-14T16:26:35.358Z,99289.22
2022-09-14T16:29:05.005Z,99300.97
2022-09-14T16:31:36.479Z,99295.34
2022-09-14T16:34:08.326Z,99293.06
2022-09-14T16:36:40.624Z,99292.31
2022-09-14T16:39:13.593Z,99298.47
2022-09-14T16:41:43.321Z,99303.84
2022-09-14T16:44:15.169Z,99303.09
2022-09-14T16:46:44.478Z,99305.91
2022-09-14T16:49:13.522Z,99301.56
2022-09-14T16:51:42.010Z,99295.94
2022-09-14T16:54:12.438Z,99291.63
2022-09-14T16:56:40.900Z,99308.47
2022-09-14T16:59:09.379Z,99313.34
2022-09-14T17:01:40.890Z,99304.16
2022-09-14T17:04:11.876Z,99310.53
2022-09-14T17:06:42.534Z,99307.47
2022-09-14T17:09:13.947Z,99307.47
2022-09-14T17:11:43.692Z,99300.34
2022-09-14T17:14:17.046Z,99296.75
2022-09-14T17:16:46.037Z,99288.88
2022-09-14T17:19:14.704Z,99288.09
2022-09-14T17:21:45.852Z,99288.09
2022-09-14T17:24:15.528Z,99283.78
2022-09-14T17:26:44.602Z,99281.47
2022-09-14T17:29:13.457Z,99278.16
2022-09-14T17:31:44.252Z,99278.91
2022-09-14T17:34:16.990Z,99275.34
2022-09-14T17:36:46.612Z,99270.47
2022-09-14T17:39:16.500Z,99270.47
2022-09-14T17:41:45.424Z,99277.63
2022-09-14T17:44:16.979Z,99282.47
2022-09-14T17:46:51.999Z,99288.09
2022-09-14T17:49:23.977Z,99295.78
2022-09-14T17:51:52.901Z,99293.72
2022-09-14T17:54:21.790Z,99292.19
2022-09-14T17:56:50.295Z,99295.53
2022-09-14T17:59:21.778Z,99290.44
2022-09-14T18:01:51.310Z,99288.91
2022-09-14T18:04:20.509Z,99282.53
2022-09-14T18:06:51.005Z,99275.41
2022-09-14T18:09:22.574Z,99272.31
2022-09-14T18:11:52.128Z,99282.81
2022-09-14T18:14:21.054Z,99281.81
2022-09-14T18:16:49.566Z,99278.22
2022-09-14T18:19:18.243Z,99274.44
2022-09-14T18:21:51.654Z,99263.72
2022-09-14T18:24:20.902Z,99259.38
2022-09-14T18:26:49.777Z,99257.84
2022-09-14T18:29:22.261Z,99261.72
2022-09-14T18:31:52.127Z,99251.78
2022-09-14T18:34:22.661Z,99250.78
2022-09-14T18:36:53.033Z,99244.91
2022-09-14T18:39:21.473Z,99234.97
2022-09-14T18:41:54.864Z,99231.94
2022-09-14T18:44:24.392Z,99232.44
2022-09-14T18:46:53.469Z,99225.81
2022-09-14T18:49:22.112Z,99225.53
2022-09-14T18:51:50.749Z,99225.31
2022-09-14T18:54:22.204Z,99231.44
2022-09-14T18:56:53.076Z,99231.75
2022-09-14T18:59:21.722Z,99221.56
2022-09-14T19:01:50.448Z,99212.91
2022-09-14T19:04:19.062Z,99207.81
2022-09-14T19:06:47.574Z,99200.66
2022-09-14T19:09:15.990Z,99197.63
2022-09-14T19:11:44.476Z,99195.34
2022-09-14T19:14:14.411Z,99184.63
2022-09-14T19:16:43.722Z,99192.31
2022-09-14T19:19:15.093Z,99185.91
2022-09-14T19:21:44.187Z,99186.44
2022-09-14T19:24:16.133Z,99189.25
2022-09-14T19:26:48.058Z,99186.22
2022-09-14T19:29:20.304Z,99192.31
2022-09-14T19:31:52.514Z,99192.09
2022-09-14T19:34:24.238Z,99200.28
2022-09-14T19:36:54.727Z,99206.94
2022-09-14T19:39:27.149Z,99206.69
2022-09-14T19:41:55.643Z,99197.28
2022-09-14T19:44:24.291Z,99202.91
2022-09-14T19:46:52.866Z,99198.56
2022-09-14T19:49:25.064Z,99195.75
2022-09-14T19:51:53.747Z,99196.28
2022-09-14T19:54:22.393Z,99190.66
2022-09-14T19:56:51.180Z,99177.16
2022-09-14T19:59:19.644Z,99172.06
2022-09-14T20:01:48.402Z,99169.25
2022-09-14T20:04:19.151Z,99172.06
2022-09-14T20:06:48.711Z,99170.03
2022-09-14T20:09:23.522Z,99169.78
2022-09-14T20:11:53.708Z,99169.25
2022-09-14T20:14:25.415Z,99163.41
2022-09-14T20:16:56.556Z,99167.72
2022-09-14T20:19:29.161Z,99169.78
2022-09-14T20:21:58.246Z,99168.50
2022-09-14T20:24:28.859Z,99167.72
2022-09-14T20:27:00.556Z,99164.16
2022-09-14T20:29:31.620Z,99157.03
2022-09-14T20:32:00.587Z,99161.13
2022-09-14T20:34:29.694Z,99157.03
2022-09-14T20:37:01.256Z,99157.03
2022-09-14T20:39:30.598Z,99156.28
2022-09-14T20:41:58.980Z,99150.66
2022-09-14T20:44:27.506Z,99146.84
2022-09-14T20:46:56.048Z,99147.63
2022-09-14T20:49:25.076Z,99146.34
2022-09-14T20:51:58.341Z,99141.25
2022-09-14T20:54:26.887Z,99131.81
2022-09-14T20:56:55.293Z,99131.06
2022-09-14T20:59:23.999Z,99133.13
2022-09-14T21:01:54.091Z,99125.94
2022-09-14T21:04:24.707Z,99124.94
2022-09-14T21:06:55.583Z,99117.81
2022-09-14T21:09:26.576Z,99112.19
2022-09-14T21:11:55.556Z,99105.84
2022-09-14T21:14:24.419Z,99108.63
2022-09-14T21:16:57.553Z,99104.31
2022-09-14T21:19:28.825Z,99095.13
2022-09-14T21:21:57.585Z,99095.13
2022-09-14T21:24:26.212Z,99088.00
2022-09-14T21:26:54.777Z,99100.25
2022-09-14T21:29:24.755Z,99091.06
2022-09-14T21:31:54.070Z,99101.00
2022-09-14T21:34:22.953Z,99091.81
2022-09-14T21:36:52.952Z,99099.47
2022-09-14T21:39:26.724Z,99100.75
2022-09-14T21:41:59.339Z,99102.06
2022-09-14T21:44:36.258Z,99100.75
2022-09-14T21:47:05.995Z,99100.00
2022-09-14T21:49:34.569Z,99107.13
2022-09-14T21:52:03.356Z,99110.69
2022-09-14T21:54:31.969Z,99115.56
2022-09-14T21:57:00.511Z,99123.22
2022-09-14T21:59:28.943Z,99118.88
2022-09-14T22:01:57.492Z,99110.47
2022-09-14T22:04:27.910Z,99114.78
2022-09-14T22:06:58.210Z,99105.63
2022-09-14T22:09:29.904Z,99114.03
2022-09-14T22:11:59.179Z,99108.41
2022-09-14T22:14:29.934Z,99110.47
2022-09-14T22:16:58.614Z,99113.28
2022-09-14T22:19:32.535Z,99119.41
2022-09-14T22:22:01.160Z,99115.09
2022-09-14T22:24:37.129Z,99124.25
2022-09-14T22:27:13.016Z,99115.09
2022-09-14T22:29:42.164Z,99120.69
2022-09-14T22:32:12.925Z,99115.84
2022-09-14T22:34:43.907Z,99117.88
2022-09-14T22:37:15.095Z,99124.25
2022-09-14T22:39:43.630Z,99123.25
2022-09-14T22:42:12.136Z,99122.50
2022-09-14T22:44:40.543Z,99122.50
2022-09-14T22:47:09.050Z,99125.84
2022-09-14T22:49:37.575Z,99125.06
2022-09-14T22:52:06.162Z,99131.44
2022-09-14T22:54:34.638Z,99136.28
2022-09-14T22:57:03.117Z,99139.09
2022-09-14T22:59:31.690Z,99139.84
2022-09-14T23:02:00.163Z,99141.38
2022-09-14T23:04:28.631Z,99150.56
2022-09-14T23:06:57.127Z,99154.38
2022-09-14T23:09:25.623Z,99147.47
2022-09-14T23:11:54.269Z,99151.28
2022-09-14T23:14:23.265Z,99146.41
2022-09-14T23:16:51.751Z,99151.00
2022-09-14T23:19:20.458Z,99150.50
2022-09-14T23:21:48.944Z,99145.88
2022-09-14T23:24:17.429Z,99147.41
2022-09-14T23:26:46.005Z,99154.00
2022-09-14T23:29:17.329Z,99148.66
2022-09-14T23:31:46.493Z,99149.66
2022-09-14T23:34:15.480Z,99162.13
2022-09-14T23:36:44.068Z,99165.94
2022-09-14T23:39:12.657Z,99161.84
2022-09-14T23:41:41.769Z,99173.28
2022-09-14T23:44:12.974Z,99171.50
2022-09-14T23:46:41.757Z,99179.38
2022-09-14T23:49:11.592Z,99189.56
2022-09-14T23:51:41.061Z,99196.19
2022-09-14T23:54:10.957Z,99201.28
2022-09-14T23:56:39.732Z,99205.88
2022-09-14T23:59:11.500Z,99215.81
